createdAt,value
2023-04-11T00:00:39.819Z,45.4621
2023-04-11T00:01:40.360Z,45.6096
2023-04-11T00:03:13.318Z,45.6917
2023-04-11T00:05:08.494Z,45.1581
2023-04-11T00:06:09.400Z,45.1810
2023-04-11T00:07:09.987Z,45.2738
2023-04-11T00:08:10.245Z,45.5479
2023-04-11T00:09:11.147Z,45.3643
2023-04-11T00:10:11.377Z,45.3905
2023-04-11T00:11:11.985Z,45.4480
2023-04-11T00:12:12.331Z,45.5931
2023-04-11T00:13:12.907Z,45.5714
2023-04-11T00:14:13.228Z,45.7573
2023-04-11T00:15:13.726Z,45.4031
2023-04-11T00:16:14.390Z,45.4465
2023-04-11T00:17:14.534Z,45.5575
2023-04-11T00:18:14.913Z,45.3011
2023-04-11T00:19:15.386Z,45.7070
2023-04-11T00:20:15.712Z,45.8239
2023-04-11T00:21:16.146Z,45.8242
2023-04-11T00:22:16.549Z,45.6164
2023-04-11T00:23:17.148Z,45.8348
2023-04-11T00:24:17.427Z,45.8626
2023-04-11T00:25:18.090Z,45.7470
2023-04-11T00:26:18.545Z,45.6114
2023-04-11T00:27:21.285Z,45.7474
2023-04-11T00:28:19.479Z,45.5403
2023-04-11T00:29:20.516Z,45.4002
2023-04-11T00:30:20.913Z,45.4462
2023-04-11T00:31:21.445Z,45.4418
2023-04-11T00:32:22.274Z,45.4303
2023-04-11T00:33:22.802Z,45.5502
2023-04-11T00:34:23.371Z,45.5157
2023-04-11T00:35:23.853Z,45.6725
2023-04-11T00:36:24.815Z,45.7490
2023-04-11T00:37:25.562Z,46.0079
2023-04-11T00:38:26.007Z,46.0585
2023-04-11T00:39:27.345Z,46.0908
2023-04-11T00:40:28.118Z,46.1840
2023-04-11T00:41:29.005Z,46.3645
2023-04-11T00:42:29.310Z,46.4653
2023-04-11T00:43:29.796Z,46.3441
2023-04-11T00:44:30.088Z,46.6637
2023-04-11T00:45:30.588Z,47.0633
2023-04-11T00:46:31.305Z,46.8137
2023-04-11T00:47:32.756Z,47.1753
2023-04-11T00:48:33.274Z,47.6550
2023-04-11T00:49:34.274Z,47.9197
2023-04-11T00:50:34.762Z,47.7846
2023-04-11T00:51:35.232Z,47.9391
2023-04-11T00:52:35.776Z,48.1863
2023-04-11T00:53:36.067Z,48.2346
2023-04-11T00:54:36.539Z,48.2739
2023-04-11T00:55:36.771Z,48.2897
2023-04-11T00:56:37.686Z,48.5308
2023-04-11T00:57:38.016Z,48.6871
2023-04-11T00:58:38.549Z,48.8321
2023-04-11T00:59:38.929Z,49.2574
2023-04-11T01:00:39.481Z,49.1848
2023-04-11T01:01:40.270Z,49.5772
2023-04-11T01:02:40.357Z,50.0587
2023-04-11T01:03:41.888Z,50.2560
2023-04-11T01:04:42.905Z,50.9102
2023-04-11T01:05:43.163Z,51.0430
2023-04-11T01:06:43.637Z,51.0787
2023-04-11T01:07:43.920Z,51.7119
2023-04-11T01:08:44.525Z,52.4216
2023-04-11T01:09:44.835Z,52.0070
2023-04-11T01:10:45.383Z,51.8729
2023-04-11T01:11:45.793Z,52.1237
2023-04-11T01:12:46.639Z,51.7368
2023-04-11T01:13:47.133Z,52.0113
2023-04-11T01:14:47.744Z,52.1319
2023-04-11T01:15:48.087Z,52.2452
2023-04-11T01:16:48.833Z,52.1416
2023-04-11T01:17:49.322Z,51.9521
2023-04-11T01:18:50.437Z,52.0013
2023-04-11T01:19:51.387Z,52.1044
2023-04-11T01:20:51.765Z,52.1100
2023-04-11T01:21:52.370Z,51.3570
2023-04-11T01:22:52.789Z,51.0874
2023-04-11T01:23:53.262Z,51.1097
2023-04-11T01:24:53.547Z,51.0469
2023-04-11T01:25:54.045Z,50.8755
2023-04-11T01:26:54.399Z,50.3922
2023-04-11T01:27:54.934Z,50.7689
2023-04-11T01:28:55.408Z,50.7785
2023-04-11T01:29:56.759Z,50.9887
2023-04-11T01:30:57.192Z,51.7965
2023-04-11T01:31:57.752Z,51.2541
2023-04-11T01:32:58.189Z,50.7787
2023-04-11T01:33:58.708Z,50.8403
2023-04-11T01:34:59.081Z,50.8195
2023-04-11T01:35:59.619Z,50.7264
2023-04-11T01:37:00.058Z,50.6248
2023-04-11T01:38:00.680Z,50.9076
2023-04-11T01:39:00.965Z,50.9473
2023-04-11T01:40:01.550Z,50.7154
2023-04-11T01:41:02.063Z,50.9086
2023-04-11T01:42:02.440Z,50.8922
2023-04-11T01:43:02.668Z,50.9768
2023-04-11T01:44:03.249Z,50.6001
2023-04-11T01:45:03.554Z,50.5712
2023-04-11T01:46:04.029Z,50.7016
2023-04-11T01:47:04.341Z,50.8739
2023-04-11T01:48:04.744Z,50.7771
2023-04-11T01:49:04.903Z,50.8811
2023-04-11T01:50:05.630Z,50.8166
2023-04-11T01:51:05.905Z,50.6091
2023-04-11T01:52:06.486Z,50.7888
2023-04-11T01:53:06.648Z,50.6533
2023-04-11T01:54:07.351Z,50.8008
2023-04-11T01:55:07.640Z,50.8812
2023-04-11T01:56:08.208Z,50.9395
2023-04-11T01:57:08.554Z,50.9756
2023-04-11T01:58:09.462Z,50.9292
2023-04-11T01:59:09.689Z,51.0943
2023-04-11T02:00:10.211Z,51.1753
2023-04-11T02:01:10.526Z,51.2090
2023-04-11T02:02:11.888Z,51.1882
2023-04-11T02:03:11.907Z,51.4239
2023-04-11T02:04:12.734Z,51.3471
2023-04-11T02:05:13.249Z,51.2188
2023-04-11T02:06:13.586Z,51.1928
2023-04-11T02:07:13.932Z,51.1382
2023-04-11T02:08:14.352Z,51.1974
2023-04-11T02:09:15.858Z,51.0345
2023-04-11T02:10:16.214Z,51.0210
2023-04-11T02:11:16.866Z,51.2327
2023-04-11T02:12:17.088Z,51.2700
2023-04-11T02:13:17.673Z,51.1077
2023-04-11T02:14:17.959Z,51.1780
2023-04-11T02:15:18.480Z,51.0091
2023-04-11T02:16:19.136Z,51.0214
2023-04-11T02:17:19.652Z,50.8187
2023-04-11T02:18:20.265Z,50.7827
2023-04-11T02:19:21.438Z,50.7967
2023-04-11T02:20:22.019Z,50.5610
2023-04-11T02:21:22.575Z,50.7058
2023-04-11T02:22:23.098Z,50.5926
2023-04-11T02:23:24.337Z,50.6228
2023-04-11T02:24:23.714Z,50.4566
2023-04-11T02:25:24.179Z,50.3829
2023-04-11T02:26:24.599Z,50.5934
2023-04-11T02:27:24.889Z,50.6885
2023-04-11T02:28:25.439Z,50.5624
2023-04-11T02:29:25.793Z,50.6149
2023-04-11T02:30:26.295Z,50.7890
2023-04-11T02:31:27.055Z,50.6699
2023-04-11T02:32:28.505Z,50.5233
2023-04-11T02:33:29.073Z,50.4217
2023-04-11T02:34:29.644Z,50.5208
2023-04-11T02:35:30.133Z,50.5569
2023-04-11T02:36:31.052Z,50.7169
2023-04-11T02:37:31.370Z,50.8074
2023-04-11T02:38:31.766Z,50.9818
2023-04-11T02:39:32.266Z,51.4074
2023-04-11T02:40:32.830Z,51.8272
2023-04-11T02:41:33.065Z,52.3230
2023-04-11T02:42:33.461Z,52.2529
2023-04-11T02:43:33.858Z,52.1981
2023-04-11T02:44:34.368Z,52.2626
2023-04-11T02:45:34.679Z,52.3177
2023-04-11T02:46:36.002Z,52.4895
2023-04-11T02:47:36.795Z,53.0263
2023-04-11T02:48:37.270Z,55.9898
2023-04-11T02:49:38.000Z,58.9374
2023-04-11T02:50:38.323Z,57.2252
2023-04-11T02:51:38.799Z,57.9650
2023-04-11T02:52:38.989Z,58.2867
2023-04-11T02:53:39.566Z,59.5739
2023-04-11T02:54:39.839Z,59.0972
2023-04-11T02:55:40.319Z,59.2113
2023-04-11T02:56:40.567Z,60.1534
2023-04-11T02:57:41.390Z,59.8968
2023-04-11T02:58:42.047Z,59.5923
2023-04-11T02:59:42.140Z,59.5996
2023-04-11T03:00:42.352Z,59.9904
2023-04-11T03:01:43.501Z,59.1815
2023-04-11T03:02:44.324Z,59.4221
2023-04-11T03:03:44.938Z,59.4155
2023-04-11T03:04:44.777Z,59.3715
2023-04-11T03:05:45.322Z,58.9790
2023-04-11T03:06:45.856Z,59.3220
2023-04-11T03:07:46.357Z,59.8632
2023-04-11T03:08:46.759Z,60.1055
2023-04-11T03:09:47.259Z,61.6632
2023-04-11T03:10:47.583Z,62.3327
2023-04-11T03:11:48.116Z,62.7993
2023-04-11T03:12:48.510Z,62.7579
2023-04-11T03:13:49.070Z,63.3342
2023-04-11T03:14:49.464Z,62.7957
2023-04-11T03:15:50.383Z,62.9387
2023-04-11T03:16:51.043Z,62.9876
2023-04-11T03:17:51.688Z,62.9197
2023-04-11T03:18:52.000Z,63.7289
2023-04-11T03:19:53.181Z,65.5080
2023-04-11T03:20:53.604Z,66.4630
2023-04-11T03:21:54.099Z,69.8059
2023-04-11T03:22:54.760Z,69.6146
2023-04-11T03:23:55.083Z,72.5122
2023-04-11T03:24:55.635Z,72.5054
2023-04-11T03:25:56.123Z,72.3440
2023-04-11T03:26:56.754Z,71.0031
2023-04-11T03:27:57.163Z,70.5398
2023-04-11T03:28:58.611Z,69.6153
2023-04-11T03:29:58.952Z,69.4463
2023-04-11T03:30:59.853Z,71.0735
2023-04-11T03:32:01.091Z,71.1061
2023-04-11T03:33:02.053Z,71.1697
2023-04-11T03:34:02.640Z,72.5167
2023-04-11T03:35:03.130Z,73.1691
2023-04-11T03:36:03.871Z,74.0636
2023-04-11T03:37:04.392Z,74.6707
2023-04-11T03:38:05.389Z,75.2581
2023-04-11T03:39:06.765Z,76.7057
2023-04-11T03:40:07.541Z,77.0844
2023-04-11T03:41:08.353Z,77.4796
2023-04-11T03:42:09.510Z,78.8039
2023-04-11T03:43:10.034Z,79.5204
2023-04-11T03:44:10.488Z,80.1734
2023-04-11T03:45:11.219Z,80.4742
2023-04-11T03:46:11.629Z,80.1904
2023-04-11T03:47:12.983Z,80.1960
2023-04-11T03:48:13.880Z,80.1087
2023-04-11T03:49:14.592Z,80.6340
2023-04-11T03:50:15.226Z,80.8104
2023-04-11T03:51:16.060Z,80.9463
2023-04-11T03:52:16.743Z,81.4316
2023-04-11T03:53:17.242Z,81.9320
2023-04-11T03:54:17.525Z,82.6105
2023-04-11T03:55:18.272Z,83.7076
2023-04-11T03:56:18.720Z,82.5108
2023-04-11T03:57:19.701Z,82.9406
2023-04-11T03:58:20.044Z,82.6174
2023-04-11T03:59:21.144Z,83.4142
2023-04-11T04:00:21.532Z,83.8019
2023-04-11T04:01:22.155Z,83.5046
2023-04-11T04:02:23.593Z,83.7984
2023-04-11T04:03:24.598Z,83.7455
2023-04-11T04:04:24.972Z,84.0601
2023-04-11T04:05:25.752Z,84.0410
2023-04-11T04:06:26.415Z,85.0114
2023-04-11T04:07:26.943Z,84.7773
2023-04-11T04:08:27.542Z,85.1310
2023-04-11T04:09:28.089Z,86.1208
2023-04-11T04:10:28.825Z,86.2513
2023-04-11T04:11:29.333Z,87.1991
2023-04-11T04:12:29.839Z,87.4366
2023-04-11T04:13:30.218Z,88.0400
2023-04-11T04:14:31.690Z,88.6627
2023-04-11T04:15:32.294Z,88.8482
2023-04-11T04:16:33.292Z,89.5481
2023-04-11T04:17:34.229Z,89.8120
2023-04-11T04:18:34.835Z,90.2616
2023-04-11T04:19:35.482Z,90.9285
2023-04-11T04:20:36.084Z,91.4623
2023-04-11T04:21:36.820Z,91.5065
2023-04-11T04:22:37.308Z,91.6740
2023-04-11T04:23:37.975Z,92.2225
2023-04-11T04:24:39.175Z,92.3696
2023-04-11T04:25:40.175Z,92.3904
2023-04-11T04:26:41.023Z,92.9847
2023-04-11T04:27:41.495Z,93.0607
2023-04-11T04:28:42.293Z,92.8146
2023-04-11T04:29:42.704Z,93.1865
2023-04-11T04:30:43.021Z,93.5735
2023-04-11T04:31:43.699Z,93.9057
2023-04-11T04:32:44.997Z,94.0207
2023-04-11T04:33:46.165Z,94.0002
2023-04-11T04:34:47.109Z,94.1168
2023-04-11T04:35:48.189Z,94.3570
2023-04-11T04:37:48.480Z,94.8036
2023-04-11T04:38:49.232Z,94.8755
2023-04-11T04:39:50.030Z,94.9411
2023-04-11T04:40:52.425Z,94.7688
2023-04-11T04:41:53.150Z,94.8603
2023-04-11T04:42:54.016Z,94.9918
2023-04-11T04:43:55.056Z,95.0311
2023-04-11T04:44:56.076Z,95.1979
2023-04-11T04:45:57.005Z,95.3107
2023-04-11T04:46:58.104Z,95.3778
2023-04-11T04:47:59.301Z,95.3615
2023-04-11T04:49:00.965Z,95.4315
2023-04-11T04:50:01.768Z,95.5177
2023-04-11T04:51:02.324Z,95.6043
2023-04-11T04:52:03.530Z,95.7063
2023-04-11T04:53:04.183Z,95.7611
2023-04-11T04:54:05.726Z,95.8098
2023-04-11T04:55:06.722Z,95.4951
2023-04-11T04:56:07.677Z,94.9867
2023-04-11T04:57:08.639Z,94.7415
2023-04-11T04:58:10.047Z,94.8451
2023-04-11T04:59:10.951Z,94.9892
2023-04-11T05:00:12.114Z,94.8164
2023-04-11T05:01:12.594Z,94.8310
2023-04-11T05:02:12.955Z,94.8346
2023-04-11T05:03:13.847Z,94.8083
2023-04-11T05:04:14.478Z,94.5825
2023-04-11T05:05:15.557Z,94.4334
2023-04-11T05:06:15.496Z,94.5608
2023-04-11T05:07:17.196Z,94.5725
2023-04-11T05:08:17.591Z,94.7684
2023-04-11T05:09:18.783Z,94.8836
2023-04-11T05:10:20.177Z,95.0403
2023-04-11T05:11:21.153Z,95.2496
2023-04-11T05:12:21.597Z,95.2430
2023-04-11T05:13:22.288Z,95.1975
2023-04-11T05:14:22.900Z,95.2677
2023-04-11T05:15:24.086Z,95.4773
2023-04-11T05:16:25.474Z,95.5933
2023-04-11T05:17:27.166Z,95.6873
2023-04-11T05:18:28.315Z,95.7966
2023-04-11T05:19:29.449Z,95.9111
2023-04-11T05:20:30.490Z,96.0413
2023-04-11T05:21:31.367Z,96.1234
2023-04-11T05:22:32.571Z,96.1008
2023-04-11T05:23:32.682Z,96.0182
2023-04-11T05:24:33.320Z,95.9240
2023-04-11T05:25:34.622Z,95.9620
2023-04-11T05:26:35.030Z,95.9363
2023-04-11T05:27:36.601Z,95.8868
2023-04-11T05:28:36.976Z,95.9616
2023-04-11T05:29:36.826Z,96.0377
2023-04-11T05:30:37.933Z,96.0842
2023-04-11T05:31:39.486Z,96.1074
2023-04-11T05:32:40.017Z,96.0278
2023-04-11T05:33:41.246Z,96.0775
2023-04-11T05:34:41.569Z,96.1026
2023-04-11T05:35:41.564Z,96.1378
2023-04-11T05:36:42.113Z,96.1208
2023-04-11T05:37:42.969Z,95.9430
2023-04-11T05:40:45.378Z,96.0238
2023-04-11T05:41:46.881Z,95.8437
2023-04-11T05:42:47.095Z,95.3528
2023-04-11T05:43:49.955Z,95.3681
2023-04-11T05:44:52.133Z,95.5467
2023-04-11T05:49:56.536Z,95.2777
2023-04-11T05:50:56.774Z,95.3019
2023-04-11T05:51:58.260Z,95.4204
2023-04-11T05:52:58.403Z,95.3670
2023-04-11T05:54:00.044Z,95.2937
2023-04-11T05:55:01.762Z,95.3242
2023-04-11T05:56:01.758Z,95.5415
2023-04-11T05:58:02.534Z,95.6023
2023-04-11T05:59:03.637Z,95.7314
2023-04-11T06:00:04.162Z,95.6116
2023-04-11T06:01:05.366Z,95.4765
2023-04-11T06:02:06.427Z,95.4794
2023-04-11T06:03:08.232Z,95.3468
2023-04-11T06:04:08.771Z,95.0979
2023-04-11T06:05:08.767Z,95.0440
2023-04-11T06:06:10.115Z,95.0614
2023-04-11T06:07:10.138Z,95.0226
2023-04-11T06:08:11.202Z,94.8082
2023-04-11T06:09:12.212Z,94.7785
2023-04-11T06:10:12.738Z,94.5302
2023-04-11T06:11:12.927Z,94.3818
2023-04-11T06:12:14.173Z,94.3350
2023-04-11T06:13:14.353Z,94.5703
2023-04-11T06:14:14.373Z,94.6727
2023-04-11T06:15:15.102Z,94.8756
2023-04-11T06:16:16.346Z,94.6448
2023-04-11T06:17:16.272Z,94.4308
2023-04-11T06:18:17.475Z,94.2759
2023-04-11T06:19:18.359Z,93.9349
2023-04-11T06:20:19.088Z,93.8032
2023-04-11T06:21:20.106Z,93.9733
2023-04-11T06:22:20.730Z,93.7236
2023-04-11T06:23:21.053Z,93.3420
2023-04-11T06:24:21.853Z,92.7950
2023-04-11T06:25:22.846Z,93.5083
2023-04-11T06:26:23.873Z,93.3509
2023-04-11T06:27:25.155Z,93.2884
2023-04-11T06:28:26.248Z,93.5009
2023-04-11T06:29:25.926Z,93.2810
2023-04-11T06:30:26.771Z,92.4825
2023-04-11T06:31:27.903Z,92.3340
2023-04-11T06:32:28.903Z,92.0749
2023-04-11T06:33:30.118Z,92.0354
2023-04-11T06:34:31.668Z,91.9797
2023-04-11T06:35:32.563Z,92.6468
2023-04-11T06:36:33.706Z,92.9304
2023-04-11T06:37:34.570Z,92.6728
2023-04-11T06:38:35.545Z,92.7275
2023-04-11T06:39:36.416Z,92.4873
2023-04-11T06:40:37.068Z,92.3162
2023-04-11T06:41:37.964Z,92.6244
2023-04-11T06:42:38.924Z,92.8525
2023-04-11T06:43:39.872Z,92.3023
2023-04-11T06:44:41.285Z,92.4547
2023-04-11T06:45:42.201Z,92.2307
2023-04-11T06:46:42.811Z,92.3483
2023-04-11T06:47:44.077Z,92.7996
2023-04-11T06:48:44.881Z,92.9468
2023-04-11T06:49:46.058Z,92.9575
2023-04-11T06:50:47.074Z,92.8619
2023-04-11T06:51:48.332Z,92.6158
2023-04-11T06:52:49.404Z,92.5341
2023-04-11T06:53:50.631Z,92.4704
2023-04-11T06:54:52.252Z,92.5190
2023-04-11T06:55:52.952Z,93.0214
2023-04-11T06:56:53.854Z,93.3147
2023-04-11T06:57:54.457Z,93.3725
2023-04-11T06:58:55.402Z,92.9824
2023-04-11T06:59:56.951Z,92.4045
2023-04-11T07:00:58.104Z,93.0565
2023-04-11T07:01:59.716Z,93.1930
2023-04-11T07:03:00.716Z,93.1535
2023-04-11T07:04:01.507Z,93.1046
2023-04-11T07:05:02.779Z,93.0128
2023-04-11T07:06:03.567Z,93.0410
2023-04-11T07:07:03.990Z,93.1660
2023-04-11T07:08:04.755Z,93.1517
2023-04-11T07:09:05.682Z,93.1398
2023-04-11T07:10:06.482Z,92.8425
2023-04-11T07:11:07.410Z,92.3310
2023-04-11T07:12:08.334Z,92.2941
2023-04-11T07:13:09.273Z,91.7904
2023-04-11T07:14:10.027Z,92.0575
2023-04-11T07:15:11.008Z,92.4842
2023-04-11T07:16:12.010Z,92.2717
2023-04-11T07:17:13.363Z,92.7691
2023-04-11T07:18:14.374Z,92.9107
2023-04-11T07:19:15.534Z,93.1081
2023-04-11T07:20:16.331Z,93.1595
2023-04-11T07:21:17.420Z,93.0480
2023-04-11T07:22:18.102Z,93.2047
2023-04-11T07:23:19.158Z,93.2982
2023-04-11T07:24:19.956Z,93.5152
2023-04-11T07:25:20.729Z,93.5468
2023-04-11T07:26:20.156Z,93.6308
2023-04-11T07:27:21.301Z,93.1356
2023-04-11T07:28:22.204Z,93.2842
2023-04-11T07:29:22.569Z,93.5966
2023-04-11T07:30:24.641Z,93.4683
2023-04-11T07:31:24.256Z,93.7346
2023-04-11T07:32:25.655Z,93.8219
2023-04-11T07:33:26.849Z,93.5857
2023-04-11T07:34:27.060Z,93.6661
2023-04-11T07:35:28.175Z,93.4914
2023-04-11T07:36:29.088Z,92.9711
2023-04-11T07:37:30.100Z,92.7697
2023-04-11T07:38:31.139Z,92.6641
2023-04-11T07:39:32.100Z,92.9427
2023-04-11T07:40:32.972Z,93.0458
2023-04-11T07:41:34.049Z,93.4641
2023-04-11T07:42:34.836Z,93.5846
2023-04-11T07:43:35.883Z,93.6855
2023-04-11T07:44:36.882Z,93.5594
2023-04-11T07:45:38.421Z,93.5146
2023-04-11T07:48:40.038Z,93.3250
2023-04-11T07:49:40.888Z,93.6460
2023-04-11T07:50:41.557Z,93.2048
2023-04-11T07:51:42.545Z,93.2356
2023-04-11T07:52:43.435Z,93.6447
2023-04-11T07:53:44.585Z,93.8204
2023-04-11T07:54:45.389Z,94.0336
2023-04-11T07:55:46.374Z,94.0221
2023-04-11T07:56:47.131Z,94.1880
2023-04-11T07:57:48.194Z,94.2399
2023-04-11T07:58:49.287Z,94.2047
2023-04-11T07:59:50.366Z,93.7102
2023-04-11T08:00:51.201Z,93.4706
2023-04-11T08:01:52.543Z,93.2633
2023-04-11T08:02:53.271Z,93.4705
2023-04-11T08:03:53.428Z,93.1184
2023-04-11T08:04:53.498Z,93.4138
2023-04-11T08:05:53.987Z,93.6939
2023-04-11T08:06:54.811Z,93.6514
2023-04-11T08:07:55.744Z,93.0504
2023-04-11T08:08:56.951Z,92.4705
2023-04-11T08:09:58.024Z,92.3778
2023-04-11T08:10:59.614Z,91.5029
2023-04-11T08:12:00.774Z,90.5551
2023-04-11T08:13:02.190Z,91.0126
2023-04-11T08:14:03.133Z,91.6000
2023-04-11T08:15:04.432Z,91.6813
2023-04-11T08:16:05.539Z,91.5625
2023-04-11T08:17:14.822Z,91.3227
2023-04-11T08:18:07.841Z,90.5423
2023-04-11T08:19:09.282Z,90.7865
2023-04-11T08:20:09.688Z,90.9453
2023-04-11T08:21:10.669Z,91.3005
2023-04-11T08:22:11.318Z,91.4433
2023-04-11T08:23:12.938Z,91.2074
2023-04-11T08:24:13.773Z,91.3779
2023-04-11T08:25:15.161Z,91.0791
2023-04-11T08:26:16.007Z,91.1648
2023-04-11T08:27:17.438Z,91.1491
2023-04-11T08:28:18.640Z,91.1107
2023-04-11T08:29:19.341Z,91.1990
2023-04-11T08:30:20.118Z,91.1075
2023-04-11T08:31:20.655Z,90.9910
2023-04-11T08:32:22.257Z,90.4890
2023-04-11T08:33:21.919Z,90.3910
2023-04-11T08:34:22.977Z,89.5549
2023-04-11T08:35:23.266Z,89.8464
2023-04-11T08:36:24.126Z,89.6889
2023-04-11T08:37:25.286Z,88.9558
2023-04-11T08:38:26.503Z,89.2360
2023-04-11T08:39:27.641Z,88.8961
2023-04-11T08:40:29.740Z,87.8858
2023-04-11T08:41:31.091Z,87.5737
2023-04-11T08:42:31.548Z,88.2731
2023-04-11T08:43:32.735Z,88.1040
2023-04-11T08:44:34.013Z,88.2870
2023-04-11T08:45:35.309Z,88.0077
2023-04-11T08:46:35.469Z,86.9776
2023-04-11T08:47:36.964Z,87.1622
2023-04-11T08:48:37.142Z,87.8825
2023-04-11T08:49:38.036Z,86.6289
2023-04-11T08:50:39.054Z,85.4932
2023-04-11T08:51:39.888Z,85.2593
2023-04-11T08:52:41.661Z,85.2734
2023-04-11T08:53:42.550Z,85.1099
2023-04-11T08:54:43.916Z,84.5039
2023-04-11T08:55:45.008Z,84.3080
2023-04-11T08:56:46.231Z,83.9266
2023-04-11T08:57:47.258Z,83.7850
2023-04-11T08:58:48.306Z,83.1795
2023-04-11T08:59:49.223Z,82.3159
2023-04-11T09:00:50.410Z,82.0562
2023-04-11T09:01:50.584Z,82.7281
2023-04-11T09:02:52.118Z,83.0247
2023-04-11T09:03:53.490Z,82.9181
2023-04-11T09:04:54.713Z,82.4220
2023-04-11T09:05:55.688Z,81.4643
2023-04-11T09:06:57.024Z,80.7058
2023-04-11T09:07:57.353Z,81.4258
2023-04-11T09:08:58.388Z,80.3416
2023-04-11T09:09:59.215Z,80.1082
2023-04-11T09:10:59.865Z,80.7596
2023-04-11T09:12:00.684Z,80.5743
2023-04-11T09:13:01.814Z,79.5166
2023-04-11T09:14:02.692Z,78.8882
2023-04-11T09:15:02.793Z,77.2031
2023-04-11T09:16:04.107Z,77.4758
2023-04-11T09:17:05.386Z,77.3692
2023-04-11T09:18:06.118Z,77.4766
2023-04-11T09:19:07.183Z,77.8099
2023-04-11T09:20:07.243Z,77.7888
2023-04-11T09:21:08.521Z,78.1408
2023-04-11T09:22:09.425Z,77.8096
2023-04-11T09:23:10.717Z,78.2176
2023-04-11T09:24:11.584Z,78.2918
2023-04-11T09:25:12.120Z,76.9506
2023-04-11T09:26:13.109Z,75.8132
2023-04-11T09:27:14.523Z,75.6321
2023-04-11T09:28:15.391Z,75.1423
2023-04-11T09:29:16.600Z,76.0212
2023-04-11T09:30:17.744Z,75.8882
2023-04-11T09:31:19.093Z,75.0718
2023-04-11T09:32:20.109Z,74.5941
2023-04-11T09:34:20.460Z,74.7715
2023-04-11T09:35:21.599Z,74.2957
2023-04-11T09:36:22.624Z,74.0762
2023-04-11T09:37:23.829Z,73.2681
2023-04-11T09:38:24.886Z,74.0115
2023-04-11T09:39:26.031Z,74.5104
2023-04-11T09:40:27.086Z,73.8919
2023-04-11T09:41:28.152Z,74.7598
2023-04-11T09:42:28.938Z,74.9411
2023-04-11T09:43:30.077Z,74.2814
2023-04-11T09:44:30.175Z,73.7583
2023-04-11T09:45:38.256Z,74.0454
2023-04-11T09:46:31.631Z,73.1800
2023-04-11T09:48:45.453Z,73.0497
2023-04-11T09:49:32.081Z,74.2681
2023-04-11T09:50:33.161Z,73.4084
2023-04-11T09:51:36.895Z,73.4522
2023-04-11T09:52:33.801Z,72.5438
2023-04-11T09:53:35.302Z,72.3898
2023-04-11T09:54:36.197Z,72.8126
2023-04-11T09:55:37.371Z,73.8321
2023-04-11T09:56:38.187Z,72.3787
2023-04-11T09:57:39.343Z,72.7055
2023-04-11T09:58:39.990Z,72.7841
2023-04-11T09:59:40.139Z,71.2410
2023-04-11T10:00:41.289Z,71.2787
2023-04-11T10:01:42.687Z,71.2665
2023-04-11T10:02:43.307Z,71.0879
2023-04-11T10:03:44.508Z,71.6114
2023-04-11T10:04:45.951Z,71.6498
2023-04-11T10:05:48.322Z,69.9255
2023-04-11T10:06:47.552Z,69.3811
2023-04-11T10:07:48.607Z,70.4443
2023-04-11T10:08:49.774Z,70.9713
2023-04-11T10:09:50.862Z,69.8313
2023-04-11T10:10:51.496Z,70.7197
2023-04-11T10:11:52.450Z,69.1308
2023-04-11T10:12:53.125Z,69.9825
2023-04-11T10:13:53.993Z,69.9626
2023-04-11T10:14:54.972Z,70.1299
2023-04-11T10:15:56.285Z,68.9942
2023-04-11T10:16:57.592Z,68.0262
2023-04-11T10:17:58.311Z,68.6313
2023-04-11T10:18:59.231Z,69.0068
2023-04-11T10:19:59.651Z,68.7632
2023-04-11T10:21:00.874Z,69.2491
2023-04-11T10:22:02.126Z,68.7448
2023-04-11T10:23:02.944Z,67.6742
2023-04-11T10:24:03.876Z,66.6361
2023-04-11T10:25:04.699Z,66.3855
2023-04-11T10:26:05.969Z,66.0895
2023-04-11T10:27:06.630Z,67.0340
2023-04-11T10:28:07.822Z,66.5325
2023-04-11T10:29:08.900Z,66.2549
2023-04-11T10:31:09.225Z,65.2131
2023-04-11T10:32:09.193Z,64.8239
2023-04-11T10:33:10.276Z,64.9954
2023-04-11T10:34:11.798Z,65.7009
2023-04-11T10:35:12.726Z,65.0722
2023-04-11T10:36:13.375Z,65.4842
2023-04-11T10:37:14.449Z,65.8362
2023-04-11T10:38:15.524Z,66.5886
2023-04-11T10:39:16.457Z,65.8344
2023-04-11T10:40:17.543Z,66.1497
2023-04-11T10:41:18.462Z,66.5171
2023-04-11T10:42:19.559Z,65.6826
2023-04-11T10:43:20.380Z,65.3428
2023-04-11T10:44:53.144Z,65.7819
2023-04-11T10:45:54.528Z,66.2604
2023-04-11T10:46:55.867Z,66.2917
2023-04-11T10:47:57.348Z,66.4216
2023-04-11T10:48:58.481Z,66.8227
2023-04-11T10:49:58.535Z,66.0126
2023-04-11T10:50:59.610Z,65.9472
2023-04-11T10:52:00.920Z,65.8432
2023-04-11T10:53:02.197Z,65.1592
2023-04-11T10:54:02.981Z,65.5655
2023-04-11T10:55:02.972Z,65.1095
2023-04-11T10:56:04.150Z,65.8851
2023-04-11T10:57:05.104Z,66.2156
2023-04-11T10:58:06.300Z,66.2841
2023-04-11T10:59:07.370Z,65.8787
2023-04-11T11:00:08.122Z,66.2388
2023-04-11T11:01:13.213Z,66.0210
2023-04-11T11:02:10.773Z,66.1184
2023-04-11T11:03:12.220Z,65.8578
2023-04-11T11:04:13.459Z,67.1947
2023-04-11T11:05:13.736Z,66.6225
2023-04-11T11:06:13.957Z,67.0517
2023-04-11T11:07:15.493Z,66.1532
2023-04-11T11:08:16.612Z,66.8690
2023-04-11T11:09:17.597Z,66.7499
2023-04-11T11:10:18.847Z,66.5438
2023-04-11T11:11:19.983Z,66.7111
2023-04-11T11:12:21.342Z,66.2013
2023-04-11T11:13:22.566Z,66.3226
2023-04-11T11:14:23.688Z,66.4845
2023-04-11T11:15:24.816Z,66.9123
2023-04-11T11:17:25.871Z,66.6757
2023-04-11T11:18:25.940Z,67.2376
2023-04-11T11:19:26.953Z,67.0712
2023-04-11T11:20:28.269Z,67.5838
2023-04-11T11:21:29.027Z,67.6045
2023-04-11T11:22:28.840Z,66.4146
2023-04-11T11:23:30.022Z,66.9937
2023-04-11T11:24:30.518Z,67.6185
2023-04-11T11:25:31.547Z,67.7364
2023-04-11T11:26:32.899Z,67.8720
2023-04-11T11:27:33.939Z,67.5894
2023-04-11T11:28:35.163Z,67.7552
2023-04-11T11:29:36.142Z,67.8229
2023-04-11T11:30:37.261Z,67.4690
2023-04-11T11:31:37.772Z,67.9169
2023-04-11T11:32:38.230Z,67.1350
2023-04-11T11:33:39.474Z,66.6439
2023-04-11T11:34:40.710Z,67.0507
2023-04-11T11:35:41.860Z,67.9746
2023-04-11T11:36:43.495Z,68.5248
2023-04-11T11:37:44.712Z,68.3495
2023-04-11T11:38:46.241Z,67.7065
2023-04-11T11:39:47.621Z,68.1062
2023-04-11T11:40:48.924Z,68.6990
2023-04-11T11:41:50.079Z,69.0538
2023-04-11T11:42:51.686Z,68.0788
2023-04-11T11:43:52.921Z,67.6182
2023-04-11T11:44:53.479Z,66.4986
2023-04-11T11:45:54.634Z,66.0138
2023-04-11T11:46:54.914Z,66.3509
2023-04-11T11:47:56.048Z,66.3062
2023-04-11T11:48:56.372Z,66.6539
2023-04-11T11:49:56.189Z,66.6267
2023-04-11T11:50:57.502Z,67.3799
2023-04-11T11:51:58.766Z,67.5302
2023-04-11T11:53:00.211Z,67.6174
2023-04-11T11:54:01.440Z,67.9703
2023-04-11T11:55:02.752Z,68.2057
2023-04-11T11:56:04.189Z,68.0158
2023-04-11T11:57:05.484Z,68.8523
2023-04-11T11:58:06.660Z,69.1668
2023-04-11T11:59:06.717Z,69.4608
2023-04-11T12:00:07.970Z,68.7373
2023-04-11T12:01:09.334Z,68.4147
2023-04-11T12:02:10.019Z,68.6796
2023-04-11T12:03:10.612Z,68.4172
2023-04-11T12:04:11.806Z,68.6893
2023-04-11T12:05:12.427Z,68.8201
2023-04-11T12:06:13.157Z,68.6567
2023-04-11T12:07:14.402Z,67.8156
2023-04-11T12:08:15.844Z,65.9131
2023-04-11T12:09:17.323Z,66.2011
2023-04-11T12:10:18.684Z,66.7779
2023-04-11T12:11:19.982Z,66.8410
2023-04-11T12:12:21.283Z,66.3191
2023-04-11T12:13:22.309Z,67.1875
2023-04-11T12:14:22.310Z,66.9686
2023-04-11T12:15:22.326Z,66.5892
2023-04-11T12:16:24.148Z,65.1668
2023-04-11T12:17:24.649Z,65.3115
2023-04-11T12:18:24.928Z,65.0984
2023-04-11T12:19:25.001Z,65.1076
2023-04-11T12:20:26.381Z,65.8325
2023-04-11T12:21:26.682Z,65.6020
2023-04-11T12:22:27.961Z,65.5215
2023-04-11T12:24:27.998Z,65.7639
2023-04-11T12:25:28.038Z,65.7586
2023-04-11T12:26:29.177Z,65.5395
2023-04-11T12:27:29.739Z,65.7749
2023-04-11T12:28:31.014Z,66.1930
2023-04-11T12:29:31.170Z,65.7533
2023-04-11T12:30:32.494Z,64.8237
2023-04-11T12:31:32.839Z,64.5782
2023-04-11T12:32:33.164Z,64.4448